Terminal Aerodrome Forecast
Issued by NWS

Home | Current Version | Previous Version | Graphics & Text | Print | Product List | Glossary On
Versions: 1 2 3 4 5 6 7 8 9 10 11 12 13 14 15 16 17 18 19 20 21 22 23 24 25 26 27 28 29 30 31 32 33
399
FTUS43 KLOT 170629 AAA
TAFMDW
TAF AMD
KMDW 170629Z 1706/1806 05004KT 1SM -SHRA BR VCTS OVC003CB
     FM170800 04004KT 1 1/2SM -DZ BR VCSH OVC003
      TEMPO 1708/1711 1/2SM FG
     FM171200 26008KT 1SM -DZ BR OVC003
     FM172000 27009KT 2SM BR VCSH OVC003
     FM180300 30008KT 4SM -DZ BR OVC005=

USA.gov is the U.S. government's official web portal to all federal, state and local government web resources and services.